Time;durP1;ratioP1;P1;durP2;ratioP2;P2;SDS_P1;SDS_P2;PMS_P1;PMS_P2;Temp;Humidity;BMP_temperature;BMP_pressure;BME280_temperature;BME280_humidity;BME280_pressure;Samples;Min_cycle;Max_cycle;Signal;HPM_P1;HPM_P2
2024/04/07 00:00:21;;;;;;;6.30;5.00;;;;;;;10.99;100.00;100383.58;86942;274;137312;-68
2024/04/07 00:02:22;;;;;;;6.00;5.40;;;;;;;10.98;100.00;100384.09;87220;278;25205;-67
2024/04/07 00:04:23;;;;;;;5.80;5.10;;;;;;;10.94;100.00;100392.84;86956;279;138165;-64
2024/04/07 00:06:24;;;;;;;5.60;5.10;;;;;;;10.92;100.00;100396.52;87107;272;22661;-66
2024/04/07 00:08:25;;;;;;;5.90;5.50;;;;;;;10.90;100.00;100398.38;87163;272;138308;-69
2024/04/07 00:10:26;;;;;;;6.40;5.10;;;;;;;10.88;100.00;100400.00;87168;271;22563;-68
2024/04/07 00:12:26;;;;;;;6.00;5.50;;;;;;;10.86;100.00;100402.77;86981;281;136488;-67
2024/04/07 00:14:27;;;;;;;5.80;5.30;;;;;;;10.83;100.00;100404.25;87103;280;25130;-66
2024/04/07 00:16:28;;;;;;;5.30;5.00;;;;;;;10.80;100.00;100405.89;87072;268;137445;-66
2024/04/07 00:18:29;;;;;;;6.20;5.70;;;;;;;10.77;100.00;100405.67;87223;275;22842;-69
2024/04/07 00:20:29;;;;;;;6.40;5.70;;;;;;;10.74;100.00;100408.89;87019;279;136947;-67
2024/04/07 00:22:30;;;;;;;7.60;5.90;;;;;;;10.72;100.00;100412.16;87089;280;23330;-69
2024/04/07 00:24:31;;;;;;;6.40;5.80;;;;;;;10.71;100.00;100418.30;87011;280;136953;-67
2024/04/07 00:26:32;;;;;;;5.50;5.00;;;;;;;10.71;100.00;100421.79;87271;278;25201;-67
2024/04/07 00:28:33;;;;;;;6.20;5.80;;;;;;;10.72;100.00;100427.05;87157;278;137225;-66
2024/04/07 00:30:33;;;;;;;6.70;6.20;;;;;;;10.71;100.00;100426.76;87178;265;22746;-67
2024/04/07 00:32:34;;;;;;;6.00;5.50;;;;;;;10.70;100.00;100424.25;87119;276;137532;-68
2024/04/07 00:34:35;;;;;;;6.60;5.80;;;;;;;10.70;100.00;100430.15;87201;270;22557;-68
2024/04/07 00:36:35;;;;;;;5.90;5.50;;;;;;;10.69;100.00;100434.45;87134;268;136551;-68
2024/04/07 00:38:36;;;;;;;5.80;5.40;;;;;;;10.69;100.00;100436.32;87167;272;22560;-70
2024/04/07 00:40:37;;;;;;;6.60;5.80;;;;;;;10.66;100.00;100440.85;87025;270;138383;-68
2024/04/07 00:42:37;;;;;;;5.00;4.70;;;;;;;10.65;100.00;100447.98;87205;270;24052;-68
2024/04/07 00:44:38;;;;;;;4.90;4.30;;;;;;;10.64;100.00;100451.98;87113;268;136549;-67
2024/04/07 00:46:42;;;;;;;4.00;3.70;;;;;;;10.64;100.00;100454.29;87239;279;24029;-69
2024/04/07 00:48:43;;;;;;;4.70;4.40;;;;;;;10.63;100.00;100455.90;87213;270;137262;-70
2024/04/07 00:50:45;;;;;;;4.70;4.40;;;;;;;10.62;100.00;100460.92;87018;276;22532;-67
2024/04/07 00:52:46;;;;;;;4.20;3.90;;;;;;;10.63;100.00;100464.88;87011;280;137527;-67
2024/04/07 00:54:47;;;;;;;4.20;3.90;;;;;;;10.65;100.00;100467.20;87121;267;25584;-68
2024/04/07 00:56:47;;;;;;;4.10;3.80;;;;;;;10.64;100.00;100468.71;87090;279;137271;-67
2024/04/07 00:58:48;;;;;;;4.20;3.90;;;;;;;10.66;100.00;100471.20;87117;276;22980;-67
2024/04/07 01:00:49;;;;;;;3.70;3.40;;;;;;;10.67;100.00;100472.80;87141;279;136636;-68
2024/04/07 01:02:52;;;;;;;4.00;3.80;;;;;;;10.67;100.00;100469.86;87322;267;22560;-68
2024/04/07 01:04:52;;;;;;;3.00;2.90;;;;;;;10.67;100.00;100464.60;87076;268;136537;-68
2024/04/07 01:06:54;;;;;;;3.00;2.80;;;;;;;10.65;100.00;100466.84;87292;277;25338;-68
2024/04/07 01:08:56;;;;;;;4.00;3.70;;;;;;;10.60;100.00;100472.55;87137;272;137995;-66
2024/04/07 01:10:56;;;;;;;3.00;2.90;;;;;;;10.58;100.00;100479.88;87248;271;22846;-66
2024/04/07 01:12:57;;;;;;;3.10;2.90;;;;;;;10.59;100.00;100483.52;87096;279;138915;-67
2024/04/07 01:14:58;;;;;;;3.20;3.00;;;;;;;10.59;100.00;100488.98;87172;268;24115;-67
2024/04/07 01:16:59;;;;;;;4.00;3.60;;;;;;;10.59;100.00;100490.02;86989;271;137388;-67
2024/04/07 01:18:59;;;;;;;3.40;3.20;;;;;;;10.57;100.00;100492.68;87172;280;22567;-67
2024/04/07 01:21:00;;;;;;;3.10;2.90;;;;;;;10.54;100.00;100493.17;87029;276;137218;-66
2024/04/07 01:23:01;;;;;;;3.30;3.10;;;;;;;10.52;100.00;100490.09;87156;268;22566;-66
2024/04/07 01:25:03;;;;;;;3.30;3.10;;;;;;;10.51;100.00;100488.94;87140;267;138419;-67
2024/04/07 01:27:04;;;;;;;2.70;2.60;;;;;;;10.51;100.00;100493.23;87322;276;25251;-69
2024/04/07 01:29:05;;;;;;;2.90;2.70;;;;;;;10.51;100.00;100494.75;87233;274;137164;-67
2024/04/07 01:31:05;;;;;;;2.80;2.60;;;;;;;10.52;100.00;100498.98;87138;268;23023;-68
2024/04/07 01:33:06;;;;;;;3.00;2.70;;;;;;;10.53;100.00;100500.47;87107;271;137284;-69
2024/04/07 01:35:06;;;;;;;3.40;3.00;;;;;;;10.52;100.00;100501.94;87223;271;24905;-72
2024/04/07 01:37:08;;;;;;;3.40;3.20;;;;;;;10.52;100.00;100499.30;87261;267;137020;-68
2024/04/07 01:39:08;;;;;;;2.70;2.60;;;;;;;10.54;100.00;100500.84;87274;279;24064;-70
2024/04/07 01:41:09;;;;;;;3.60;3.40;;;;;;;10.57;100.00;100504.54;87057;275;138019;-68
2024/04/07 01:43:10;;;;;;;3.70;3.50;;;;;;;10.59;100.00;100507.19;87190;274;23683;-67
2024/04/07 01:45:11;;;;;;;3.70;3.50;;;;;;;10.61;100.00;100510.13;86949;269;137276;-68
2024/04/07 01:47:11;;;;;;;3.40;3.20;;;;;;;10.63;100.00;100509.05;87123;271;22642;-68
2024/04/07 01:49:12;;;;;;;4.40;4.10;;;;;;;10.63;100.00;100512.45;87053;271;136983;-68
2024/04/07 01:51:13;;;;;;;3.00;2.80;;;;;;;10.61;100.00;100511.60;87036;276;22560;-68
2024/04/07 01:53:13;;;;;;;3.90;3.50;;;;;;;10.58;100.00;100511.53;86921;273;136949;-69
2024/04/07 01:55:14;;;;;;;3.00;2.80;;;;;;;10.56;100.00;100508.66;87105;268;22572;-67
2024/04/07 01:57:15;;;;;;;3.70;3.30;;;;;;;10.50;100.00;100510.60;86932;280;138300;-67
2024/04/07 01:59:16;;;;;;;4.40;4.00;;;;;;;10.43;100.00;100511.27;87158;265;23616;-70
2024/04/07 02:01:17;;;;;;;2.90;2.80;;;;;;;10.39;100.00;100509.91;87081;272;137067;-67
2024/04/07 02:03:18;;;;;;;3.00;2.80;;;;;;;10.38;100.00;100511.28;87178;272;22571;-68
2024/04/07 02:05:18;;;;;;;3.40;3.20;;;;;;;10.39;100.00;100506.77;87209;271;137438;-68
2024/04/07 02:07:20;;;;;;;3.10;3.00;;;;;;;10.36;100.00;100507.27;87330;274;22556;-67
2024/04/07 02:09:21;;;;;;;3.20;3.00;;;;;;;10.32;100.00;100509.67;87097;280;137326;-69
2024/04/07 02:11:21;;;;;;;2.70;2.60;;;;;;;10.31;100.00;100517.83;87112;280;22538;-68
2024/04/07 02:13:22;;;;;;;2.80;2.60;;;;;;;10.31;100.00;100513.69;87031;279;137223;-68
2024/04/07 02:15:24;;;;;;;2.50;2.40;;;;;;;10.30;100.00;100514.67;87224;267;22722;-67
2024/04/07 02:17:25;;;;;;;2.60;2.40;;;;;;;10.28;100.00;100520.75;87180;271;136684;-70
2024/04/07 02:19:25;;;;;;;2.90;2.80;;;;;;;10.27;100.00;100523.67;87189;268;22584;-69
2024/04/07 02:21:26;;;;;;;2.80;2.60;;;;;;;10.27;100.00;100523.15;87116;272;136960;-69
2024/04/07 02:23:27;;;;;;;4.90;2.20;;;;;;;10.29;100.00;100529.56;87173;272;25111;-66
2024/04/07 02:25:27;;;;;;;2.60;2.40;;;;;;;10.30;100.00;100533.27;87022;273;138796;-67
2024/04/07 02:27:28;;;;;;;3.20;3.00;;;;;;;10.31;100.00;100537.96;87182;268;22561;-70
2024/04/07 02:29:29;;;;;;;3.90;2.70;;;;;;;10.33;100.00;100531.02;87045;272;137371;-70
2024/04/07 02:31:30;;;;;;;2.70;2.50;;;;;;;10.36;100.00;100533.73;87188;269;23771;-68
2024/04/07 02:33:31;;;;;;;4.10;2.40;;;;;;;10.38;100.00;100530.30;87123;264;137009;-68
2024/04/07 02:35:32;;;;;;;2.70;2.50;;;;;;;10.40;100.00;100538.78;87141;268;22645;-68
2024/04/07 02:37:32;;;;;;;2.40;2.20;;;;;;;10.40;100.00;100542.64;86986;281;138358;-68
2024/04/07 02:39:33;;;;;;;2.70;2.50;;;;;;;10.41;100.00;100542.52;87184;268;22571;-68
2024/04/07 02:41:33;;;;;;;3.00;2.90;;;;;;;10.41;100.00;100548.06;87160;268;137921;-67
2024/04/07 02:43:34;;;;;;;3.00;2.80;;;;;;;10.39;100.00;100549.41;87273;268;25330;-63
2024/04/07 02:48:04;;;;;;;3.00;2.70;;;;;;;10.34;100.00;100549.80;87295;270;24106;-67
2024/04/07 02:50:05;;;;;;;2.70;2.50;;;;;;;10.35;100.00;100544.89;87450;275;22630;-65
2024/04/07 02:52:06;;;;;;;4.20;3.20;;;;;;;10.35;100.00;100547.06;87298;266;138086;-66
2024/04/07 02:54:07;;;;;;;3.00;2.80;;;;;;;10.35;100.00;100548.38;87277;279;23626;-66
2024/04/07 02:56:07;;;;;;;3.60;3.10;;;;;;;10.33;100.00;100547.03;87275;270;137188;-67
2024/04/07 02:58:08;;;;;;;3.90;3.60;;;;;;;10.30;100.00;100542.59;87364;272;23785;-65
2024/04/07 03:00:13;;;;;;;4.00;3.70;;;;;;;10.31;100.00;100544.62;87037;271;137128;-66
2024/04/07 03:02:14;;;;;;;;;;;;;;;10.35;100.00;100545.25;87345;270;25307;-67
2024/04/07 03:04:14;;;;;;;3.70;3.40;;;;;;;10.37;100.00;100548.60;87151;274;123845;-69
2024/04/07 03:06:15;;;;;;;4.10;3.80;;;;;;;10.39;100.00;100549.38;87098;268;27768;-70
2024/04/07 03:08:15;;;;;;;4.40;4.10;;;;;;;10.40;100.00;100551.54;86978;270;137246;-77
2024/04/07 03:10:18;;;;;;;4.10;3.90;;;;;;;10.39;100.00;100551.97;87417;268;23234;-75
2024/04/07 03:12:18;;;;;;;4.00;3.70;;;;;;;10.39;100.00;100552.50;87242;270;137429;-75
2024/04/07 03:14:19;;;;;;;4.60;4.30;;;;;;;10.39;100.00;100550.27;87570;280;22510;-75
2024/04/07 03:16:20;;;;;;;4.30;4.00;;;;;;;10.38;100.00;100550.71;87637;272;138055;-75
2024/04/07 03:18:21;;;;;;;4.40;4.10;;;;;;;10.38;100.00;100558.54;87619;271;22601;-74
2024/04/07 03:20:22;;;;;;;3.90;3.70;;;;;;;10.38;100.00;100563.17;88007;271;137560;-69
2024/04/07 03:22:23;;;;;;;5.80;5.30;;;;;;;10.38;100.00;100562.81;88565;266;22543;-75
2024/04/07 03:24:28;;;;;;;5.00;4.70;;;;;;;10.37;100.00;100567.58;88986;266;136848;-73
2024/04/07 03:26:29;;;;;;;;;;;;;;;10.36;100.00;100571.02;89139;264;25240;-73
2024/04/07 03:28:30;;;;;;;4.60;4.10;;;;;;;10.34;100.00;100578.16;87831;274;124473;-74
2024/04/07 03:30:32;;;;;;;4.70;4.30;;;;;;;10.31;100.00;100583.48;87379;269;23997;-73
2024/04/07 03:32:33;;;;;;;5.30;4.90;;;;;;;10.30;100.00;100585.02;87228;271;136904;-74
2024/04/07 03:34:34;;;;;;;5.00;4.10;;;;;;;10.31;100.00;100589.55;87265;268;22644;-74
2024/04/07 03:36:34;;;;;;;4.60;4.20;;;;;;;10.31;100.00;100593.05;87167;273;136561;-75
2024/04/07 03:38:35;;;;;;;5.10;4.60;;;;;;;10.32;100.00;100593.84;87337;271;22651;-77
2024/04/07 03:40:40;;;;;;;4.50;4.20;;;;;;;10.32;100.00;100598.66;87224;270;138109;-75
2024/04/07 03:42:41;;;;;;;5.60;5.20;;;;;;;10.32;100.00;100604.52;87208;280;22601;-75
2024/04/07 03:44:42;;;;;;;4.40;3.60;;;;;;;10.35;100.00;100609.91;87098;271;136793;-72
2024/04/07 03:46:46;;;;;;;4.80;4.50;;;;;;;10.37;100.00;100614.48;87391;276;22687;-71
2024/04/07 03:48:47;;;;;;;5.70;4.20;;;;;;;10.38;100.00;100615.01;87077;271;136956;-73
2024/04/07 03:50:47;;;;;;;4.50;4.20;;;;;;;10.39;100.00;100619.73;87193;279;25159;-72
2024/04/07 03:52:48;;;;;;;4.50;4.10;;;;;;;10.36;100.00;100618.81;87209;270;142600;-75
2024/04/07 03:54:49;;;;;;;3.60;3.50;;;;;;;10.35;100.00;100630.08;87219;278;22816;-67
2024/04/07 03:56:49;;;;;;;3.40;3.10;;;;;;;10.34;100.00;100636.66;87068;280;136491;-73
2024/04/07 03:58:50;;;;;;;3.90;3.60;;;;;;;10.33;100.00;100640.42;87063;281;24056;-75
2024/04/07 04:00:51;;;;;;;3.60;3.40;;;;;;;10.35;100.00;100639.55;87052;272;137197;-77
2024/04/07 04:02:52;;;;;;;4.10;3.80;;;;;;;10.37;100.00;100644.09;87148;272;24280;-74
2024/04/07 04:05:03;;;;;;;4.10;3.60;;;;;;;10.37;100.00;100641.21;87118;263;137130;-75
2024/04/07 04:07:04;;;;;;;3.20;3.00;;;;;;;10.39;100.00;100647.41;87181;271;22648;-68
2024/04/07 04:09:05;;;;;;;3.80;3.60;;;;;;;10.42;100.00;100654.30;87039;271;138243;-72
2024/04/07 04:11:08;;;;;;;3.40;3.10;;;;;;;10.48;100.00;100655.59;87221;273;25221;-72
2024/04/07 04:13:09;;;;;;;3.40;3.20;;;;;;;10.54;100.00;100654.25;87242;272;137360;-73
2024/04/07 04:15:10;;;;;;;4.10;3.90;;;;;;;10.56;100.00;100655.05;87282;279;22564;-75
2024/04/07 04:17:12;;;;;;;3.50;3.30;;;;;;;10.57;100.00;100660.25;87254;268;137239;-75
2024/04/07 04:19:13;;;;;;;3.70;3.40;;;;;;;10.58;100.00;100661.90;87356;272;25071;-75
2024/04/07 04:21:14;;;;;;;4.80;3.40;;;;;;;10.60;100.00;100662.50;87229;272;137550;-75
2024/04/07 04:23:14;;;;;;;4.70;4.10;;;;;;;10.62;100.00;100660.65;87146;277;22571;-73
2024/04/07 04:25:17;;;;;;;5.40;3.80;;;;;;;10.63;100.00;100661.78;87305;271;137168;-77
2024/04/07 04:27:17;;;;;;;2.90;2.70;;;;;;;10.65;100.00;100666.98;87487;271;25268;-77
2024/04/07 04:29:18;;;;;;;4.50;4.10;;;;;;;10.71;100.00;100667.52;87324;267;136796;-77
2024/04/07 04:31:19;;;;;;;4.70;2.80;;;;;;;10.83;100.00;100667.63;87412;272;25392;-77
2024/04/07 04:33:21;;;;;;;7.00;3.20;;;;;;;11.09;100.00;100671.48;87280;272;137181;-77
2024/04/07 04:35:22;;;;;;;2.90;2.70;;;;;;;11.61;100.00;100673.64;87476;276;22654;-76
2024/04/07 04:37:23;;;;;;;5.80;3.00;;;;;;;12.41;100.00;100676.29;87191;268;139081;-78
2024/04/07 04:39:24;;;;;;;2.70;2.30;;;;;;;13.21;100.00;100681.58;87324;272;23977;-77
2024/04/07 04:41:24;;;;;;;4.60;2.60;;;;;;;13.99;100.00;100688.92;87117;278;139575;-77
2024/04/07 04:43:25;;;;;;;3.40;2.20;;;;;;;14.67;100.00;100693.73;87383;267;25243;-80
2024/04/07 04:45:26;;;;;;;2.30;2.10;;;;;;;15.27;100.00;100697.55;87169;276;138005;-78
2024/04/07 04:47:26;;;;;;;2.40;1.70;;;;;;;15.89;100.00;100699.66;87328;273;23581;-78
2024/04/07 04:49:28;;;;;;;1.70;1.50;;;;;;;16.32;100.00;100700.20;87153;272;136669;-74
2024/04/07 04:51:29;;;;;;;1.90;1.80;;;;;;;16.74;100.00;100696.70;87459;266;22579;-76
2024/04/07 04:53:30;;;;;;;1.40;1.30;;;;;;;17.04;100.00;100702.75;87255;268;137423;-77
2024/04/07 04:55:32;;;;;;;2.10;0.90;;;;;;;17.20;100.00;100710.48;87281;280;24093;-77
2024/04/07 04:57:32;;;;;;;2.80;1.00;;;;;;;17.35;100.00;100714.21;87303;272;136559;-77
2024/04/07 04:59:33;;;;;;;2.80;0.90;;;;;;;17.59;100.00;100714.73;87270;276;22573;-74
2024/04/07 05:01:34;;;;;;;0.90;0.90;;;;;;;17.87;100.00;100715.75;87277;271;136054;-77
2024/04/07 05:03:34;;;;;;;0.60;0.40;;;;;;;17.99;100.00;100719.17;87438;270;23285;-78
2024/04/07 05:05:35;;;;;;;1.10;0.70;;;;;;;18.01;100.00;100720.52;87479;269;137694;-81
2024/04/07 05:07:37;;;;;;;1.00;0.70;;;;;;;18.02;100.00;100727.56;88292;268;24468;-85
2024/04/07 05:09:37;;;;;;;1.40;0.80;;;;;;;18.07;100.00;100733.48;87551;271;137091;-77
2024/04/07 05:11:38;;;;;;;4.30;0.90;;;;;;;17.82;100.00;100734.23;87210;271;23520;-76
2024/04/07 05:13:39;;;;;;;1.60;1.00;;;;;;;17.28;100.00;100730.20;87148;272;136233;-76
2024/04/07 05:15:41;;;;;;;1.00;0.90;;;;;;;16.51;100.00;100735.38;87323;270;22884;-77
2024/04/07 05:17:42;;;;;;;1.40;1.10;;;;;;;15.66;100.00;100736.38;87401;268;136514;-77
2024/04/07 05:19:43;;;;;;;0.90;0.90;;;;;;;14.98;100.00;100735.14;86501;272;926448;-77
2024/04/07 05:21:44;;;;;;;1.90;1.80;;;;;;;14.38;100.00;100741.58;86986;277;136853;-73
2024/04/07 05:23:44;;;;;;;4.80;1.80;;;;;;;13.86;100.00;100742.77;87170;277;25218;-73
2024/04/07 05:25:45;;;;;;;2.90;1.30;;;;;;;13.46;100.00;100749.66;87116;280;137576;-73
2024/04/07 05:27:46;;;;;;;2.80;2.30;;;;;;;13.10;100.00;100759.08;87392;270;22559;-73
2024/04/07 05:29:48;;;;;;;1.70;1.60;;;;;;;12.79;100.00;100756.17;87049;273;138015;-74
2024/04/07 05:31:50;;;;;;;2.10;2.00;;;;;;;12.54;100.00;100759.38;87317;272;25297;-74
2024/04/07 05:33:50;;;;;;;1.80;1.60;;;;;;;12.26;100.00;100765.66;87312;274;137693;-73
2024/04/07 05:35:54;;;;;;;2.50;1.60;;;;;;;12.03;100.00;100767.34;87178;280;22563;-73
2024/04/07 05:37:55;;;;;;;3.50;1.90;;;;;;;11.89;100.00;100765.02;87007;276;136693;-75
2024/04/07 05:39:55;;;;;;;3.00;2.40;;;;;;;11.75;100.00;100765.23;87122;275;24017;-74
2024/04/07 05:41:56;;;;;;;2.10;2.00;;;;;;;11.64;100.00;100767.06;87253;269;136829;-75
2024/04/07 05:43:57;;;;;;;2.30;2.20;;;;;;;11.60;100.00;100772.05;87246;276;22529;-74
2024/04/07 05:46:05;;;;;;;3.80;3.50;;;;;;;11.60;100.00;100772.14;87085;268;137257;-74
2024/04/07 05:48:06;;;;;;;4.10;3.80;;;;;;;11.57;100.00;100770.29;87062;272;137520;-74
2024/04/07 05:50:07;;;;;;;4.10;3.80;;;;;;;11.51;100.00;100766.51;87035;279;22584;-75
2024/04/07 05:52:08;;;;;;;4.90;3.50;;;;;;;11.50;100.00;100764.82;86980;268;137559;-76
2024/04/07 05:54:08;;;;;;;3.50;3.20;;;;;;;11.60;100.00;100766.02;87128;265;22642;-74
2024/04/07 05:56:12;;;;;;;3.50;3.20;;;;;;;11.73;100.00;100770.64;87030;280;138321;-73
2024/04/07 05:58:14;;;;;;;4.00;3.20;;;;;;;11.87;100.00;100775.74;87079;276;24796;-76
2024/04/07 06:00:15;;;;;;;3.40;3.10;;;;;;;12.17;100.00;100777.04;86984;268;137527;-69
2024/04/07 06:02:16;;;;;;;5.30;2.90;;;;;;;12.52;100.00;100773.75;87173;272;24105;-72
2024/04/07 06:04:17;;;;;;;2.50;2.40;;;;;;;12.82;100.00;100776.59;87025;279;137016;-73
2024/04/07 06:06:18;;;;;;;3.20;3.00;;;;;;;12.94;100.00;100781.92;87182;268;22559;-76
2024/04/07 06:08:19;;;;;;;4.40;3.30;;;;;;;13.07;100.00;100788.77;87054;272;138165;-74
2024/04/07 06:10:19;;;;;;;3.90;3.60;;;;;;;13.20;100.00;100791.06;87300;270;22979;-78
2024/04/07 06:12:21;;;;;;;4.20;3.90;;;;;;;13.30;100.00;100793.00;87196;270;137283;-76
2024/04/07 06:14:21;;;;;;;4.10;3.80;;;;;;;13.51;100.00;100787.23;87372;277;22567;-75
2024/04/07 06:16:22;;;;;;;4.80;4.50;;;;;;;13.75;100.00;100786.87;87206;268;137944;-74
2024/04/07 06:18:24;;;;;;;5.10;4.60;;;;;;;14.16;100.00;100791.20;87162;274;22605;-74
2024/04/07 06:20:25;;;;;;;6.10;4.40;;;;;;;14.72;100.00;100799.65;87140;269;139886;-77
2024/04/07 06:22:26;;;;;;;4.30;4.10;;;;;;;15.21;100.00;100799.19;87237;279;22681;-76
2024/04/07 06:24:27;;;;;;;3.60;3.50;;;;;;;15.57;100.00;100797.75;87404;279;136971;-78
2024/04/07 06:26:28;;;;;;;3.20;3.00;;;;;;;15.93;100.00;100802.80;87695;270;23286;-73
2024/04/07 06:28:29;;;;;;;3.30;3.10;;;;;;;16.13;100.00;100805.20;87351;268;137917;-80
2024/04/07 06:30:30;;;;;;;7.30;3.70;;;;;;;16.19;100.00;100809.32;86983;280;22553;-74
2024/04/07 06:32:31;;;;;;;5.00;3.70;;;;;;;16.27;100.00;100811.64;87329;269;135867;-76
2024/04/07 06:34:32;;;;;;;4.00;3.00;;;;;;;16.19;100.00;100810.07;87471;280;22503;-79
2024/04/07 06:36:33;;;;;;;3.30;2.90;;;;;;;15.98;100.00;100812.55;86913;273;135814;-77
2024/04/07 06:38:34;;;;;;;3.10;3.00;;;;;;;15.78;100.00;100811.98;87310;270;22520;-77
2024/04/07 06:40:35;;;;;;;4.20;3.80;;;;;;;15.63;100.00;100819.97;87015;271;139077;-77
2024/04/07 06:42:36;;;;;;;4.20;3.90;;;;;;;15.60;100.00;100823.70;87154;268;25296;-79
2024/04/07 06:44:37;;;;;;;4.20;3.90;;;;;;;15.65;100.00;100827.45;86971;279;136094;-78
2024/04/07 06:46:37;;;;;;;3.60;3.40;;;;;;;15.59;100.00;100823.79;87456;280;25111;-81
2024/04/07 06:48:38;;;;;;;4.50;4.20;;;;;;;15.74;100.00;100827.77;87521;279;136418;-78
2024/04/07 06:50:39;;;;;;;3.60;3.30;;;;;;;16.00;100.00;100829.58;87424;263;22544;-76
2024/04/07 06:52:40;;;;;;;3.80;3.50;;;;;;;16.17;100.00;100828.94;87138;278;137748;-77
2024/04/07 06:54:40;;;;;;;4.00;3.70;;;;;;;16.11;100.00;100831.36;87498;271;22642;-78
2024/04/07 06:56:41;;;;;;;3.60;3.30;;;;;;;15.92;100.00;100834.40;87290;272;137262;-77
2024/04/07 06:58:42;;;;;;;3.40;3.20;;;;;;;15.80;100.00;100843.70;87192;271;24004;-75
2024/04/07 07:00:42;;;;;;;4.20;3.90;;;;;;;15.80;100.00;100847.63;86966;273;136898;-77
2024/04/07 07:02:43;;;;;;;3.80;3.40;;;;;;;15.80;100.00;100844.45;87090;276;25194;-76
2024/04/07 07:04:47;;;;;;;4.60;3.50;;;;;;;15.80;100.00;100845.85;87034;272;137427;-74
2024/04/07 07:06:47;;;;;;;3.40;3.20;;;;;;;15.71;100.00;100842.33;87105;272;24251;-78
2024/04/07 07:08:48;;;;;;;3.80;3.70;;;;;;;15.56;100.00;100846.07;87035;278;136332;-77
2024/04/07 07:10:59;;;;;;;4.30;4.00;;;;;;;15.36;100.00;100843.35;87223;270;25281;-73
2024/04/07 07:13:00;;;;;;;3.10;2.90;;;;;;;15.26;100.00;100847.57;87313;279;137857;-75
2024/04/07 07:15:01;;;;;;;3.10;2.90;;;;;;;15.25;100.00;100852.83;87166;280;24896;-75
2024/04/07 07:17:01;;;;;;;3.60;2.90;;;;;;;15.20;100.00;100854.42;86947;280;136948;-78
2024/04/07 07:19:02;;;;;;;3.80;3.50;;;;;;;15.09;100.00;100857.35;87747;273;22559;-78
2024/04/07 07:21:06;;;;;;;3.60;3.30;;;;;;;15.04;100.00;100854.52;87144;272;138490;-75
2024/04/07 07:23:07;;;;;;;6.60;3.30;;;;;;;14.99;100.00;100859.91;87283;268;22528;-77
2024/04/07 07:25:08;;;;;;;2.40;2.30;;;;;;;14.95;100.00;100858.45;87459;270;136847;-75
2024/04/07 07:27:09;;;;;;;2.30;1.90;;;;;;;14.92;100.00;100859.38;87536;273;25124;-74
2024/04/07 07:29:12;;;;;;;2.60;2.40;;;;;;;14.94;100.00;100853.63;87351;277;137014;-76
2024/04/07 07:31:13;;;;;;;2.20;2.00;;;;;;;15.00;100.00;100856.27;87565;273;22519;-77
2024/04/07 07:33:14;;;;;;;3.00;2.30;;;;;;;15.05;100.00;100853.84;87406;272;138455;-77
2024/04/07 07:35:14;;;;;;;2.60;2.40;;;;;;;15.05;100.00;100852.73;86977;273;24951;-77
2024/04/07 07:37:15;;;;;;;1.80;1.70;;;;;;;15.08;100.00;100847.70;87770;272;137509;-75
2024/04/07 07:39:17;;;;;;;3.00;2.50;;;;;;;15.17;100.00;100853.19;87660;280;23463;-77
2024/04/07 07:41:18;;;;;;;2.20;2.00;;;;;;;15.26;100.00;100860.91;87548;272;137804;-79
2024/04/07 07:43:19;;;;;;;2.20;2.10;;;;;;;15.31;100.00;100864.36;87689;273;23770;-77
2024/04/07 07:45:21;;;;;;;2.00;1.50;;;;;;;15.34;100.00;100863.64;88227;269;138291;-75
2024/04/07 07:47:27;;;;;;;1.90;1.20;;;;;;;15.32;100.00;100859.77;88371;274;25178;-75
2024/04/07 07:49:28;;;;;;;3.20;2.20;;;;;;;15.30;100.00;100862.79;87544;271;137497;-75
2024/04/07 07:51:29;;;;;;;1.20;1.10;;;;;;;15.27;100.00;100868.29;87623;278;24116;-77
2024/04/07 07:53:31;;;;;;;1.50;1.40;;;;;;;15.22;100.00;100868.73;87682;268;136664;-75
2024/04/07 07:55:33;;;;;;;1.10;0.80;;;;;;;15.21;100.00;100872.00;87778;279;25124;-79
2024/04/07 07:57:34;;;;;;;3.00;1.30;;;;;;;15.20;100.00;100872.33;87489;271;136269;-76
2024/04/07 07:59:36;;;;;;;2.40;1.70;;;;;;;15.23;100.00;100875.55;87106;275;23396;-78
2024/04/07 08:01:36;;;;;;;1.40;1.20;;;;;;;15.27;100.00;100875.80;87325;275;136314;-76
2024/04/07 08:03:37;;;;;;;2.70;1.70;;;;;;;15.31;100.00;100872.16;87506;273;22592;-75
2024/04/07 08:05:38;;;;;;;2.50;1.30;;;;;;;15.35;100.00;100872.29;87354;269;137319;-77
2024/04/07 08:07:39;;;;;;;2.20;0.90;;;;;;;15.42;100.00;100870.47;87512;279;22559;-78
2024/04/07 08:09:40;;;;;;;1.70;0.80;;;;;;;15.50;100.00;100872.03;87314;274;137798;-80
2024/04/07 08:11:41;;;;;;;2.70;1.10;;;;;;;15.58;100.00;100871.48;87524;277;22545;-79
2024/04/07 08:13:42;;;;;;;2.00;0.90;;;;;;;15.69;100.00;100871.73;87490;279;136645;-78
2024/04/07 08:15:43;;;;;;;1.10;0.70;;;;;;;15.79;100.00;100874.63;87761;278;22577;-79
2024/04/07 08:17:44;;;;;;;1.90;0.70;;;;;;;15.87;100.00;100877.48;87515;272;136811;-79
2024/04/07 08:19:46;;;;;;;1.10;0.90;;;;;;;15.93;100.00;100879.48;87502;272;22515;-79
2024/04/07 08:21:46;;;;;;;0.60;0.40;;;;;;;15.95;100.00;100877.00;87553;270;136056;-78
2024/04/07 08:23:47;;;;;;;1.00;0.60;;;;;;;15.92;100.00;100880.52;87622;272;22706;-79
2024/04/07 08:25:48;;;;;;;1.40;0.90;;;;;;;15.93;100.00;100880.75;87653;280;136178;-77
2024/04/07 08:27:49;;;;;;;2.40;0.60;;;;;;;15.94;100.00;100878.36;87953;272;22584;-77
2024/04/07 08:29:50;;;;;;;1.70;0.40;;;;;;;15.95;100.00;100882.98;87574;271;136250;-78
2024/04/07 08:31:50;;;;;;;0.40;0.20;;;;;;;15.94;100.00;100885.89;87627;263;22600;-79
2024/04/07 08:33:54;;;;;;;1.70;0.50;;;;;;;15.92;100.00;100882.96;87594;276;135947;-82
2024/04/07 08:35:57;;;;;;;1.30;0.30;;;;;;;15.88;100.00;100885.16;87559;280;23461;-81
2024/04/07 08:37:58;;;;;;;0.90;0.20;;;;;;;15.89;100.00;100887.42;87660;271;137063;-79
2024/04/07 08:40:02;;;;;;;0.70;0.20;;;;;;;15.92;100.00;100887.71;87739;268;25109;-80
2024/04/07 08:42:05;;;;;;;4.40;0.30;;;;;;;15.97;100.00;100887.45;87386;271;25124;-80
2024/04/07 08:44:07;;;;;;;0.30;0.30;;;;;;;16.01;100.00;100883.64;87362;274;136146;-81
2024/04/07 08:46:14;;;;;;;2.10;0.50;;;;;;;16.06;100.00;100880.44;87678;271;22551;-76
2024/04/07 08:48:18;;;;;;;1.00;1.00;;;;;;;16.09;100.00;100880.92;87561;271;139320;-82
2024/04/07 08:50:20;;;;;;;0.70;0.50;;;;;;;16.13;100.00;100879.46;87921;280;23825;-80
2024/04/07 08:52:22;;;;;;;1.20;0.40;;;;;;;16.18;100.00;100873.58;87165;268;136240;-80
2024/04/07 08:54:24;;;;;;;0.50;0.40;;;;;;;16.27;100.00;100870.98;88194;274;22547;-82
2024/04/07 08:56:26;;;;;;;2.00;0.50;;;;;;;16.32;100.00;100872.15;88088;269;136250;-81
2024/04/07 08:58:27;;;;;;;1.20;0.20;;;;;;;16.35;100.00;100877.58;88638;272;22563;-78
2024/04/07 09:00:27;;;;;;;1.60;0.80;;;;;;;16.37;100.00;100876.56;89468;268;136234;-76
2024/04/07 09:02:31;;;;;;;1.80;0.60;;;;;;;16.39;100.00;100880.94;89769;269;22738;-78
2024/04/07 09:04:34;;;;;;;1.90;0.70;;;;;;;16.41;100.00;100881.23;88689;266;136012;-77
2024/04/07 09:06:36;;;;;;;1.10;0.80;;;;;;;16.41;100.00;100878.59;88189;279;24722;-79
2024/04/07 09:08:36;;;;;;;1.80;0.50;;;;;;;16.44;100.00;100876.58;88012;268;136234;-78
2024/04/07 09:10:37;;;;;;;1.10;0.20;;;;;;;16.49;100.00;100881.11;87962;276;25843;-80
2024/04/07 09:12:38;;;;;;;2.00;0.30;;;;;;;16.53;100.00;100887.14;87932;274;137409;-81
2024/04/07 09:14:44;;;;;;;0.60;0.20;;;;;;;16.59;100.00;100892.04;87637;276;22574;-82
2024/04/07 09:16:45;;;;;;;1.20;0.20;;;;;;;16.66;100.00;100895.27;87600;272;136134;-79
2024/04/07 09:18:46;;;;;;;1.30;0.20;;;;;;;16.74;100.00;100901.35;87706;273;23867;-79
2024/04/07 09:23:18;;;;;;;2.60;0.20;;;;;;;16.52;100.00;100905.43;85600;300;602753;-78
2024/04/07 09:25:18;;;;;;;0.90;0.30;;;;;;;16.44;100.00;100904.06;86724;287;135495;-79